Terminal Aerodrome Forecast
Issued by NWS

Home | Current Version | Previous Version | Graphics & Text | Print | Product List | Glossary On
Versions: 1 2 3 4 5 6 7 8 9 10 11 12 13 14 15 16 17 18 19 20 21 22 23 24
000
FTUS43 KLOT 211129
TAFGYY
TAF
KGYY 211129Z 2112/2212 35013KT P6SM BKN018
     FM211500 35013KT P6SM SCT018 BKN180
     FM211800 02012KT P6SM SCT020 BKN180
     FM220700 05012KT P6SM FEW020 SCT060 BKN120=

USA.gov is the U.S. government's official web portal to all federal, state and local government web resources and services.